Time;durP1;ratioP1;P1;durP2;ratioP2;P2;SDS_P1;SDS_P2;PMS_P1;PMS_P2;Temp;Humidity;BMP_temperature;BMP_pressure;BME280_temperature;BME280_humidity;BME280_pressure;Samples;Min_cycle;Max_cycle;Signal;HPM_P1;HPM_P2
2022/07/02 00:01:20;;;;;;;7.07;5.55;;;;;;;;;;10314381;28;20050;-79
2022/07/02 00:06:23;;;;;;;5.75;5.25;;;;;;;;;;10353133;28;20045;-80
2022/07/02 00:11:25;;;;;;;6.68;5.43;;;;;;;;;;10335824;28;20083;-78
2022/07/02 00:16:26;;;;;;;5.93;5.30;;;;;;;;;;10341309;28;20401;-78
2022/07/02 00:21:27;;;;;;;7.45;5.65;;;;;;;;;;10367511;28;20161;-78
2022/07/02 00:26:29;;;;;;;5.57;4.97;;;;;;;;;;10338417;28;20581;-77
2022/07/02 00:31:31;;;;;;;5.75;4.97;;;;;;;;;;10335528;28;20145;-79
2022/07/02 00:36:32;;;;;;;7.65;5.63;;;;;;;;;;10336241;28;20096;-78
2022/07/02 00:41:32;;;;;;;5.88;5.28;;;;;;;;;;10347702;28;20411;-79
2022/07/02 00:46:35;;;;;;;5.90;5.20;;;;;;;;;;10337284;28;20070;-79
2022/07/02 00:51:36;;;;;;;6.23;5.30;;;;;;;;;;10304799;28;20078;-79
2022/07/02 00:56:36;;;;;;;5.95;5.18;;;;;;;;;;10349246;28;20397;-78
2022/07/02 01:01:37;;;;;;;6.13;5.40;;;;;;;;;;10367027;28;20046;-77
2022/07/02 01:06:38;;;;;;;5.43;4.90;;;;;;;;;;10372572;28;20101;-77
2022/07/02 01:11:40;;;;;;;7.70;5.57;;;;;;;;;;10350635;28;20187;-78
2022/07/02 01:16:43;;;;;;;7.75;4.70;;;;;;;;;;10375570;28;20038;-78
2022/07/02 01:22:02;;;;;;;5.47;4.90;;;;;;;;;;10354423;28;20053;-79
2022/07/02 01:27:02;;;;;;;4.93;4.38;;;;;;;;;;10332375;28;20299;-79
2022/07/02 01:32:05;;;;;;;6.70;5.30;;;;;;;;;;10343907;28;20058;-78
2022/07/02 01:37:10;;;;;;;5.77;5.13;;;;;;;;;;10371183;28;20700;-78
2022/07/02 01:42:11;;;;;;;6.10;4.80;;;;;;;;;;10344756;28;20128;-78
2022/07/02 01:47:12;;;;;;;5.78;4.72;;;;;;;;;;10328438;28;20529;-78
2022/07/02 01:52:13;;;;;;;8.38;5.85;;;;;;;;;;10358189;28;20054;-78
2022/07/02 01:57:13;;;;;;;6.63;4.97;;;;;;;;;;10367646;28;20051;-78
2022/07/02 02:02:14;;;;;;;6.50;4.75;;;;;;;;;;10354902;28;20041;-78
2022/07/02 02:07:14;;;;;;;6.30;4.80;;;;;;;;;;10336436;28;20046;-77
2022/07/02 02:12:16;;;;;;;6.18;5.38;;;;;;;;;;10354007;28;20093;-77
2022/07/02 02:17:17;;;;;;;6.25;5.20;;;;;;;;;;10329196;28;20111;-77
2022/07/02 02:22:18;;;;;;;7.50;5.78;;;;;;;;;;10337877;28;20569;-78
2022/07/02 02:27:19;;;;;;;6.72;5.60;;;;;;;;;;10358063;28;20089;-78
2022/07/02 02:32:19;;;;;;;6.78;5.38;;;;;;;;;;10364463;28;20081;-78
2022/07/02 02:37:20;;;;;;;6.47;5.40;;;;;;;;;;10335695;28;20620;-79
2022/07/02 02:42:21;;;;;;;6.95;5.47;;;;;;;;;;10329623;28;20038;-79
2022/07/02 02:47:23;;;;;;;6.93;5.70;;;;;;;;;;10339764;28;22653;-78
2022/07/02 02:52:23;;;;;;;5.72;5.13;;;;;;;;;;10334510;28;20042;-77
2022/07/02 02:57:25;;;;;;;5.65;4.80;;;;;;;;;;10349989;28;20728;-77
2022/07/02 03:02:25;;;;;;;6.35;4.60;;;;;;;;;;10328950;28;20038;-78
2022/07/02 03:07:28;;;;;;;6.18;5.32;;;;;;;;;;10328624;28;20038;-78
2022/07/02 03:12:28;;;;;;;5.97;5.05;;;;;;;;;;10366280;28;20112;-77
2022/07/02 03:17:29;;;;;;;7.00;5.30;;;;;;;;;;10366740;28;20696;-76
2022/07/02 03:22:30;;;;;;;7.13;5.63;;;;;;;;;;10357873;28;20041;-77
2022/07/02 03:27:32;;;;;;;7.68;5.60;;;;;;;;;;10340050;28;20082;-78
2022/07/02 03:32:33;;;;;;;7.13;5.30;;;;;;;;;;10343515;28;20096;-78
2022/07/02 03:37:33;;;;;;;6.45;4.80;;;;;;;;;;10328362;28;20389;-77
2022/07/02 03:42:34;;;;;;;6.32;4.80;;;;;;;;;;10334755;28;20053;-77
2022/07/02 03:47:34;;;;;;;5.65;4.93;;;;;;;;;;10342908;28;20042;-78
2022/07/02 03:52:36;;;;;;;5.70;4.85;;;;;;;;;;10336696;28;20054;-77
2022/07/02 03:57:37;;;;;;;5.37;4.80;;;;;;;;;;10316161;28;20050;-77
2022/07/02 04:02:37;;;;;;;6.43;5.18;;;;;;;;;;10332665;28;20046;-77
2022/07/02 04:07:39;;;;;;;6.15;5.35;;;;;;;;;;10343271;28;20057;-78
2022/07/02 04:12:40;;;;;;;6.22;4.85;;;;;;;;;;10329566;28;20156;-76
2022/07/02 04:17:41;;;;;;;8.07;5.95;;;;;;;;;;10349711;28;20038;-77
2022/07/02 04:22:41;;;;;;;9.20;5.82;;;;;;;;;;10340364;28;20540;-77
2022/07/02 04:27:42;;;;;;;6.70;5.18;;;;;;;;;;10347842;28;20043;-76
2022/07/02 04:32:42;;;;;;;7.13;5.22;;;;;;;;;;10356263;28;20052;-77
2022/07/02 04:37:43;;;;;;;6.95;5.40;;;;;;;;;;10356544;28;20125;-77
2022/07/02 04:42:43;;;;;;;6.28;5.25;;;;;;;;;;10350496;28;20148;-78
2022/07/02 04:47:45;;;;;;;7.70;5.55;;;;;;;;;;10333293;28;20052;-77
2022/07/02 04:52:48;;;;;;;6.47;5.35;;;;;;;;;;10349157;28;20081;-78
2022/07/02 04:57:49;;;;;;;7.63;5.30;;;;;;;;;;10351636;28;20073;-77
2022/07/02 05:02:49;;;;;;;5.72;4.75;;;;;;;;;;10339204;28;20136;-79
2022/07/02 05:07:51;;;;;;;7.28;5.47;;;;;;;;;;10365370;28;20046;-77
2022/07/02 05:12:51;;;;;;;5.32;4.80;;;;;;;;;;10321408;28;20050;-77
2022/07/02 05:17:53;;;;;;;6.28;4.78;;;;;;;;;;10356571;28;20160;-77
2022/07/02 05:22:53;;;;;;;5.85;4.68;;;;;;;;;;10386675;28;20072;-80
2022/07/02 05:27:54;;;;;;;5.60;4.97;;;;;;;;;;10391862;28;20053;-77
2022/07/02 05:32:55;;;;;;;5.57;4.30;;;;;;;;;;10366283;28;20054;-78
2022/07/02 05:37:55;;;;;;;6.95;5.28;;;;;;;;;;10394956;28;20559;-77
2022/07/02 05:42:56;;;;;;;5.90;5.03;;;;;;;;;;10358419;28;20045;-78
2022/07/02 05:47:56;;;;;;;5.82;5.20;;;;;;;;;;10357241;28;20039;-77
2022/07/02 05:52:57;;;;;;;5.57;4.85;;;;;;;;;;10362495;28;20046;-77
2022/07/02 05:57:57;;;;;;;6.37;4.53;;;;;;;;;;10356376;28;20077;-78
2022/07/02 06:02:58;;;;;;;6.45;5.30;;;;;;;;;;10359978;28;20285;-77
2022/07/02 06:07:58;;;;;;;5.63;4.95;;;;;;;;;;10333955;28;20056;-78
2022/07/02 06:12:59;;;;;;;6.63;5.13;;;;;;;;;;10366344;28;20092;-76
2022/07/02 06:18:00;;;;;;;5.72;4.45;;;;;;;;;;10354551;28;20042;-78
2022/07/02 06:23:01;;;;;;;5.47;4.63;;;;;;;;;;10357145;28;20038;-78
2022/07/02 06:28:02;;;;;;;4.90;4.22;;;;;;;;;;10356468;28;20046;-78
2022/07/02 06:33:05;;;;;;;5.57;4.50;;;;;;;;;;10344289;28;20354;-79
2022/07/02 06:38:05;;;;;;;5.32;4.03;;;;;;;;;;10340906;28;20042;-78
2022/07/02 06:43:06;;;;;;;4.57;3.63;;;;;;;;;;10319117;28;20043;-73
2022/07/02 06:48:06;;;;;;;4.28;3.58;;;;;;;;;;10319909;28;20561;-74
2022/07/02 06:53:07;;;;;;;3.08;2.55;;;;;;;;;;10334073;28;20050;-74
2022/07/02 06:58:07;;;;;;;3.72;2.90;;;;;;;;;;10347577;28;20038;-75
2022/07/02 07:03:08;;;;;;;2.83;2.40;;;;;;;;;;10340508;28;20050;-79
2022/07/02 07:08:08;;;;;;;3.53;2.67;;;;;;;;;;10328058;28;20293;-78
2022/07/02 07:13:09;;;;;;;2.95;2.50;;;;;;;;;;10327030;28;20060;-74
2022/07/02 07:18:09;;;;;;;2.80;2.60;;;;;;;;;;10334967;28;20049;-75
2022/07/02 07:23:09;;;;;;;2.47;2.27;;;;;;;;;;10349854;28;20054;-72
2022/07/02 07:28:10;;;;;;;2.15;1.95;;;;;;;;;;10327732;28;20331;-73
2022/07/02 07:33:10;;;;;;;3.42;1.90;;;;;;;;;;10322776;28;20125;-78
2022/07/02 07:38:11;;;;;;;3.10;2.80;;;;;;;;;;10369282;28;20045;-78
2022/07/02 07:43:12;;;;;;;2.42;2.22;;;;;;;;;;10364406;28;20109;-78
2022/07/02 07:48:13;;;;;;;2.55;2.33;;;;;;;;;;10341284;28;20042;-78
2022/07/02 07:53:14;;;;;;;2.90;2.63;;;;;;;;;;10363994;28;20049;-78
2022/07/02 07:58:15;;;;;;;3.10;2.40;;;;;;;;;;10336185;28;20109;-78
2022/07/02 08:03:17;;;;;;;4.43;2.72;;;;;;;;;;10346037;28;20066;-79
2022/07/02 08:08:17;;;;;;;2.50;2.20;;;;;;;;;;10331915;28;20393;-78
2022/07/02 08:13:19;;;;;;;2.50;2.00;;;;;;;;;;10349757;28;20044;-79
2022/07/02 08:18:20;;;;;;;3.80;3.50;;;;;;;;;;10356907;28;20042;-78
2022/07/02 08:23:24;;;;;;;2.65;2.28;;;;;;;;;;10353379;28;20090;-78
2022/07/02 08:28:25;;;;;;;2.00;1.90;;;;;;;;;;10358386;28;20176;-79
2022/07/02 08:33:26;;;;;;;2.20;1.98;;;;;;;;;;10344322;28;20105;-81
2022/07/02 08:38:28;;;;;;;2.00;1.80;;;;;;;;;;10345329;28;20077;-80
2022/07/02 08:43:31;;;;;;;3.97;2.63;;;;;;;;;;10362654;28;20057;-80
2022/07/02 08:48:32;;;;;;;2.50;1.98;;;;;;;;;;10355462;28;20280;-79
2022/07/02 08:53:34;;;;;;;4.13;2.42;;;;;;;;;;10380951;28;20069;-79
2022/07/02 08:58:35;;;;;;;2.40;2.20;;;;;;;;;;10373011;28;20046;-79
2022/07/02 09:03:37;;;;;;;2.90;2.30;;;;;;;;;;10385001;28;20106;-78
2022/07/02 09:08:38;;;;;;;3.88;2.92;;;;;;;;;;10357324;28;20078;-79
2022/07/02 09:13:40;;;;;;;4.05;2.47;;;;;;;;;;10344703;28;20031;-78
2022/07/02 09:18:41;;;;;;;2.60;2.40;;;;;;;;;;10354851;28;20108;-77
2022/07/02 09:23:48;;;;;;;4.88;2.70;;;;;;;;;;10352055;28;20334;-78
2022/07/02 09:28:56;;;;;;;2.95;2.30;;;;;;;;;;10360531;28;20051;-77
2022/07/02 09:33:57;;;;;;;2.00;1.70;;;;;;;;;;10359328;28;20057;-78
2022/07/02 09:39:00;;;;;;;4.75;4.10;;;;;;;;;;10348459;28;20090;-78
2022/07/02 09:44:03;;;;;;;4.22;3.78;;;;;;;;;;10358009;28;20042;-77
2022/07/02 09:49:08;;;;;;;2.00;1.90;;;;;;;;;;10350296;28;20037;-78
2022/07/02 09:54:09;;;;;;;3.13;2.50;;;;;;;;;;10349196;28;20046;-78
2022/07/02 09:59:14;;;;;;;3.17;2.63;;;;;;;;;;10353563;28;20161;-78
2022/07/02 10:04:26;;;;;;;2.20;1.85;;;;;;;;;;10323670;28;20301;-77
2022/07/02 10:09:27;;;;;;;2.22;2.03;;;;;;;;;;10350436;28;20060;-77
2022/07/02 10:14:36;;;;;;;2.40;1.30;;;;;;;;;;10325282;28;20119;-78
2022/07/02 10:19:40;;;;;;;2.17;1.80;;;;;;;;;;10347617;28;20097;-78
2022/07/02 10:24:43;;;;;;;1.55;1.40;;;;;;;;;;10351825;28;20042;-77
2022/07/02 10:29:44;;;;;;;1.40;1.30;;;;;;;;;;10342266;28;20066;-77
2022/07/02 10:34:58;;;;;;;1.42;1.33;;;;;;;;;;10375225;28;20050;-78
2022/07/02 10:39:58;;;;;;;;;;;;;;;;;;10342033;28;20049;-77
2022/07/02 10:45:07;;;;;;;1.20;1.10;;;;;;;;;;10323410;28;19914;-78
2022/07/02 10:50:08;;;;;;;1.92;1.25;;;;;;;;;;10338121;28;20489;-76
2022/07/02 10:55:09;;;;;;;1.40;1.20;;;;;;;;;;10346371;28;20046;-76
2022/07/02 11:00:15;;;;;;;1.40;1.30;;;;;;;;;;10326361;28;20241;-78
2022/07/02 11:05:16;;;;;;;1.60;1.05;;;;;;;;;;10352721;28;20563;-77
2022/07/02 11:10:24;;;;;;;2.40;1.30;;;;;;;;;;10311715;28;20125;-78
2022/07/02 11:15:32;;;;;;;1.98;1.20;;;;;;;;;;10346185;28;20038;-77
2022/07/02 11:20:36;;;;;;;2.95;1.17;;;;;;;;;;10336736;28;20038;-78
2022/07/02 11:25:36;;;;;;;1.45;1.02;;;;;;;;;;10311857;28;20045;-77
2022/07/02 11:30:38;;;;;;;1.38;1.08;;;;;;;;;;10358207;28;20046;-82
2022/07/02 11:35:42;;;;;;;1.50;1.15;;;;;;;;;;10339799;28;20061;-78
2022/07/02 11:40:44;;;;;;;1.80;1.00;;;;;;;;;;10379927;28;20038;-77
2022/07/02 11:45:48;;;;;;;2.00;1.10;;;;;;;;;;10384670;28;20041;-78
2022/07/02 11:51:00;;;;;;;1.23;1.13;;;;;;;;;;10384200;28;20061;-79
2022/07/02 11:56:04;;;;;;;1.70;1.30;;;;;;;;;;10400037;28;20088;-78
2022/07/02 12:01:05;;;;;;;2.30;1.10;;;;;;;;;;10388165;28;20061;-78
2022/07/02 12:06:06;;;;;;;1.98;1.10;;;;;;;;;;10379168;28;20064;-78
2022/07/02 12:11:13;;;;;;;1.90;1.00;;;;;;;;;;10391203;28;20069;-78
2022/07/02 12:16:16;;;;;;;2.22;1.33;;;;;;;;;;10396525;28;20061;-78
2022/07/02 12:21:19;;;;;;;1.50;0.90;;;;;;;;;;10360028;28;20058;-78
2022/07/02 12:26:28;;;;;;;2.38;1.17;;;;;;;;;;10362965;28;20042;-78
2022/07/02 12:31:39;;;;;;;1.58;1.20;;;;;;;;;;10346830;28;20074;-78
2022/07/02 12:36:59;;;;;;;2.38;1.00;;;;;;;;;;10340931;28;20470;-77
2022/07/02 12:42:10;;;;;;;2.05;0.90;;;;;;;;;;10364583;28;20117;-79
2022/07/02 12:47:21;;;;;;;2.58;1.10;;;;;;;;;;10338765;28;20035;-79
2022/07/02 12:52:23;;;;;;;1.10;0.95;;;;;;;;;;10333060;28;20069;-80
2022/07/02 12:57:28;;;;;;;1.25;1.10;;;;;;;;;;10342209;28;20050;-80
2022/07/02 13:02:29;;;;;;;1.38;1.00;;;;;;;;;;10354916;28;20077;-79
2022/07/02 13:07:33;;;;;;;1.92;1.10;;;;;;;;;;10314072;28;20038;-79
2022/07/02 13:12:37;;;;;;;1.25;0.98;;;;;;;;;;10357522;28;20042;-79
2022/07/02 13:17:38;;;;;;;6.45;1.23;;;;;;;;;;10349978;28;20045;-78
2022/07/02 13:22:39;;;;;;;1.00;1.00;;;;;;;;;;10358299;28;20054;-80
2022/07/02 13:27:42;;;;;;;2.03;1.00;;;;;;;;;;10329585;28;20465;-80
2022/07/02 13:32:42;;;;;;;;;;;;;;;;;;10347510;28;20042;-78
2022/07/02 13:37:47;;;;;;;2.25;1.23;;;;;;;;;;10353958;28;19913;-79
2022/07/02 13:42:48;;;;;;;1.77;1.00;;;;;;;;;;10337464;28;20054;-79
2022/07/02 13:47:51;;;;;;;1.67;1.10;;;;;;;;;;10368552;28;20109;-80
2022/07/02 13:52:57;;;;;;;2.45;1.20;;;;;;;;;;10345279;28;20073;-79
2022/07/02 13:58:06;;;;;;;2.28;1.30;;;;;;;;;;10353296;28;20199;-77
2022/07/02 14:03:08;;;;;;;1.20;1.10;;;;;;;;;;10353626;28;20042;-79
2022/07/02 14:08:09;;;;;;;1.35;1.25;;;;;;;;;;10347562;28;20050;-79
2022/07/02 14:13:23;;;;;;;;;;;;;;;;;;;;;
2022/07/02 14:18:26;;;;;;;1.30;1.20;;;;;;;;;;10312149;28;20058;-80
2022/07/02 14:23:33;;;;;;;1.50;1.40;;;;;;;;;;10355591;28;20054;-79
2022/07/02 14:28:45;;;;;;;;;;;;;;;;;;;;;
2022/07/02 14:33:46;;;;;;;2.10;1.30;;;;;;;;;;10353200;28;20050;-78
2022/07/02 14:38:47;;;;;;;1.40;1.30;;;;;;;;;;10357077;28;20069;-79
2022/07/02 14:43:49;;;;;;;1.40;1.30;;;;;;;;;;10350199;28;20038;-79
2022/07/02 14:48:50;;;;;;;1.47;1.37;;;;;;;;;;10336973;28;20070;-78
2022/07/02 14:53:50;;;;;;;1.60;1.40;;;;;;;;;;10365542;28;20092;-79
2022/07/02 14:58:51;;;;;;;2.77;1.37;;;;;;;;;;10357604;28;20054;-79
2022/07/02 15:03:52;;;;;;;1.88;1.60;;;;;;;;;;10347216;28;20051;-78
2022/07/02 15:08:53;;;;;;;1.60;1.50;;;;;;;;;;10371594;28;20046;-79
2022/07/02 15:19:13;;;;;;;1.85;1.40;;;;;;;;;;10384697;28;20034;-78
2022/07/02 15:24:24;;;;;;;1.53;1.30;;;;;;;;;;10396581;28;20050;-79
2022/07/02 15:29:34;;;;;;;1.83;1.50;;;;;;;;;;10387427;28;20038;-78
2022/07/02 15:34:40;;;;;;;1.40;1.30;;;;;;;;;;10389810;28;20042;-78
2022/07/02 15:39:47;;;;;;;1.45;1.10;;;;;;;;;;10345643;28;20500;-77
2022/07/02 15:44:53;;;;;;;1.50;1.40;;;;;;;;;;10354333;28;20054;-79
2022/07/02 15:49:55;;;;;;;1.67;1.30;;;;;;;;;;10331753;28;20065;-79
2022/07/02 15:54:56;;;;;;;1.33;1.23;;;;;;;;;;10364112;28;20066;-78
2022/07/02 16:00:01;;;;;;;1.23;1.15;;;;;;;;;;10363707;28;20054;-79
2022/07/02 16:05:10;;;;;;;;;;;;;;;;;;10367914;28;20062;-79
2022/07/02 16:10:12;;;;;;;4.23;1.30;;;;;;;;;;10340487;28;19922;-80
2022/07/02 16:15:15;;;;;;;1.80;1.30;;;;;;;;;;10351356;28;20050;-78
2022/07/02 16:20:24;;;;;;;1.27;1.17;;;;;;;;;;10339820;28;20054;-78
2022/07/02 16:25:34;;;;;;;1.50;1.40;;;;;;;;;;10304306;28;20062;-82
2022/07/02 16:30:45;;;;;;;2.70;1.45;;;;;;;;;;10340619;28;20518;-79
2022/07/02 16:35:59;;;;;;;2.55;1.60;;;;;;;;;;10309733;28;20458;-81
2022/07/02 16:41:07;;;;;;;2.55;1.40;;;;;;;;;;10341931;28;20049;-79
2022/07/02 16:46:13;;;;;;;2.00;1.80;;;;;;;;;;10295380;28;20053;-79
2022/07/02 16:51:18;;;;;;;2.13;1.70;;;;;;;;;;10298875;28;20493;-78
2022/07/02 16:56:22;;;;;;;2.13;1.40;;;;;;;;;;10313239;28;20162;-79
2022/07/02 17:01:32;;;;;;;1.60;1.50;;;;;;;;;;10353668;28;20103;-81
2022/07/02 17:07:05;;;;;;;2.50;1.70;;;;;;;;;;10319330;28;20477;-80
2022/07/02 17:12:11;;;;;;;2.05;1.40;;;;;;;;;;10341243;28;20057;-79
2022/07/02 17:17:12;;;;;;;1.58;1.48;;;;;;;;;;10335776;28;20049;-79
2022/07/02 17:22:17;;;;;;;3.42;1.70;;;;;;;;;;10382449;28;20042;-81
2022/07/02 17:27:56;;;;;;;2.00;1.67;;;;;;;;;;10348766;28;20038;-83
2022/07/02 17:33:01;;;;;;;1.40;1.30;;;;;;;;;;10382691;28;20076;-78
2022/07/02 17:38:02;;;;;;;1.50;1.40;;;;;;;;;;10345683;28;20351;-78
2022/07/02 17:43:20;;;;;;;;;;;;;;;;;;;;;
2022/07/02 17:48:24;;;;;;;1.60;1.50;;;;;;;;;;10328874;28;20037;-79
2022/07/02 17:53:47;;;;;;;;;;;;;;;;;;;;;
2022/07/02 17:58:48;;;;;;;2.72;2.10;;;;;;;;;;10340816;28;20080;-81
2022/07/02 18:03:53;;;;;;;2.90;1.80;;;;;;;;;;10332820;28;20097;-78
2022/07/02 18:09:17;;;;;;;1.88;1.50;;;;;;;;;;10257593;28;20043;-80
2022/07/02 18:14:23;;;;;;;4.25;1.85;;;;;;;;;;10340182;28;20065;-78
2022/07/02 18:19:38;;;;;;;2.85;1.50;;;;;;;;;;10363460;28;20052;-79
2022/07/02 18:24:39;;;;;;;1.92;1.70;;;;;;;;;;10365564;28;20044;-79
2022/07/02 18:29:40;;;;;;;3.63;1.95;;;;;;;;;;10379852;28;20077;-78
2022/07/02 18:34:43;;;;;;;1.60;1.50;;;;;;;;;;10402040;28;20052;-78
2022/07/02 18:39:49;;;;;;;1.60;1.50;;;;;;;;;;10366174;28;20052;-79
2022/07/02 18:44:54;;;;;;;3.22;1.90;;;;;;;;;;10376102;28;20042;-78
2022/07/02 18:49:57;;;;;;;1.50;1.40;;;;;;;;;;10351123;28;20624;-78
2022/07/02 18:54:59;;;;;;;1.75;1.65;;;;;;;;;;10367085;28;20035;-78
2022/07/02 19:00:02;;;;;;;1.92;1.80;;;;;;;;;;10363424;28;20049;-78
2022/07/02 19:05:03;;;;;;;1.75;1.65;;;;;;;;;;10352869;28;20396;-76
2022/07/02 19:10:04;;;;;;;3.33;2.80;;;;;;;;;;10363280;28;20085;-79
2022/07/02 19:15:12;;;;;;;3.13;2.75;;;;;;;;;;10361902;28;20041;-77
2022/07/02 19:20:17;;;;;;;2.45;2.20;;;;;;;;;;10358146;28;20044;-80
2022/07/02 19:25:25;;;;;;;2.78;2.50;;;;;;;;;;10326199;28;20133;-78
2022/07/02 19:30:28;;;;;;;3.78;1.92;;;;;;;;;;10373830;28;20187;-79
2022/07/02 19:35:35;;;;;;;3.15;2.33;;;;;;;;;;10338076;28;20143;-79
2022/07/02 19:40:38;;;;;;;3.80;2.40;;;;;;;;;;10351361;28;20136;-79
2022/07/02 19:45:40;;;;;;;2.60;2.33;;;;;;;;;;10329609;28;20560;-79
2022/07/02 19:50:51;;;;;;;2.70;2.47;;;;;;;;;;10330675;28;20473;-77
2022/07/02 19:55:58;;;;;;;4.50;2.72;;;;;;;;;;10352655;28;20056;-79
2022/07/02 20:01:11;;;;;;;3.72;2.60;;;;;;;;;;10315945;28;22565;-77
2022/07/02 20:06:18;;;;;;;4.30;2.92;;;;;;;;;;10313763;28;20057;-76
2022/07/02 20:11:19;;;;;;;3.67;2.60;;;;;;;;;;10338935;28;20136;-77
2022/07/02 20:16:22;;;;;;;4.07;3.22;;;;;;;;;;10328153;28;20104;-75
2022/07/02 20:21:23;;;;;;;4.28;3.50;;;;;;;;;;10337540;28;20929;-76
2022/07/02 20:26:26;;;;;;;4.90;3.75;;;;;;;;;;10339008;28;20098;-77
2022/07/02 20:31:28;;;;;;;5.93;5.32;;;;;;;;;;10366399;28;20050;-79
2022/07/02 20:36:33;;;;;;;4.22;3.83;;;;;;;;;;10359368;28;20050;-79
2022/07/02 20:41:35;;;;;;;4.17;3.50;;;;;;;;;;10368281;28;20093;-77
2022/07/02 20:46:39;;;;;;;4.20;3.85;;;;;;;;;;10362882;28;20066;-77
2022/07/02 20:57:12;;;;;;;4.82;3.33;;;;;;;;;;10374086;28;20041;-80
2022/07/02 21:02:50;;;;;;;3.45;3.15;;;;;;;;;;10305522;28;20124;-78
2022/07/02 21:07:50;;;;;;;3.58;3.28;;;;;;;;;;10350609;28;20120;-77
2022/07/02 21:12:53;;;;;;;4.18;3.78;;;;;;;;;;10331793;28;20133;-78
2022/07/02 21:17:55;;;;;;;4.07;3.60;;;;;;;;;;10355295;28;20136;-77
2022/07/02 21:22:55;;;;;;;4.25;3.80;;;;;;;;;;10365237;28;20054;-78
2022/07/02 21:27:56;;;;;;;3.90;3.25;;;;;;;;;;10345193;28;20037;-76
2022/07/02 21:32:56;;;;;;;3.50;3.20;;;;;;;;;;10350887;28;20133;-80
2022/07/02 21:37:58;;;;;;;3.30;3.00;;;;;;;;;;10335566;28;20081;-78
2022/07/02 21:42:59;;;;;;;4.13;3.75;;;;;;;;;;10392719;28;20277;-76
2022/07/02 21:48:00;;;;;;;3.83;3.53;;;;;;;;;;10394916;28;20077;-79
2022/07/02 21:53:01;;;;;;;5.72;3.65;;;;;;;;;;10396769;28;20403;-77
2022/07/02 21:58:01;;;;;;;4.47;4.07;;;;;;;;;;10390275;28;20050;-76
2022/07/02 22:03:03;;;;;;;3.92;3.63;;;;;;;;;;10358198;28;20278;-76
2022/07/02 22:08:04;;;;;;;4.63;3.93;;;;;;;;;;10342303;28;20034;-76
2022/07/02 22:13:05;;;;;;;4.55;3.83;;;;;;;;;;10351252;28;20133;-77
2022/07/02 22:18:05;;;;;;;4.40;4.00;;;;;;;;;;10353720;28;20054;-77
2022/07/02 22:23:09;;;;;;;4.95;4.10;;;;;;;;;;10309405;28;20052;-79
2022/07/02 22:28:10;;;;;;;5.43;3.97;;;;;;;;;;10348507;28;20183;-78
2022/07/02 22:33:13;;;;;;;4.30;3.90;;;;;;;;;;10352184;28;20061;-78
2022/07/02 22:38:35;;;;;;;4.50;3.80;;;;;;;;;;10351117;28;20073;-79
2022/07/02 22:43:38;;;;;;;4.13;3.73;;;;;;;;;;10318608;28;20865;-80
2022/07/02 22:48:50;;;;;;;;;;;;;;;;;;;;;
2022/07/02 22:54:15;;;;;;;4.00;3.45;;;;;;;;;;10334938;28;20277;-79
2022/07/02 22:59:18;;;;;;;4.68;3.83;;;;;;;;;;10358718;28;20046;-78
2022/07/02 23:04:19;;;;;;;4.53;4.13;;;;;;;;;;10372563;28;20048;-78
2022/07/02 23:09:20;;;;;;;3.85;3.55;;;;;;;;;;10367582;28;20047;-80
2022/07/02 23:14:20;;;;;;;4.07;3.65;;;;;;;;;;10367959;28;20069;-79
2022/07/02 23:19:23;;;;;;;4.35;4.05;;;;;;;;;;10330980;28;20154;-78
2022/07/02 23:24:24;;;;;;;4.63;4.22;;;;;;;;;;10330744;28;20089;-79
2022/07/02 23:29:28;;;;;;;4.53;3.90;;;;;;;;;;10350027;28;20046;-79
2022/07/02 23:34:29;;;;;;;4.47;4.07;;;;;;;;;;10367318;28;20045;-79
2022/07/02 23:39:41;;;;;;;5.53;3.97;;;;;;;;;;10385170;28;20044;-79
2022/07/02 23:44:42;;;;;;;4.85;4.45;;;;;;;;;;10380326;28;20040;-77
2022/07/02 23:49:54;;;;;;;4.75;4.35;;;;;;;;;;10358525;28;20050;-78
2022/07/02 23:54:55;;;;;;;5.70;5.10;;;;;;;;;;10348249;28;20101;-78
2022/07/02 23:59:56;;;;;;;5.57;5.07;;;;;;;;;;10361707;28;20110;-77
